I19 weather

Greene County-Lewis A. Jackson Regional Airport
Dayton, Ohio, United States

Public forecast

Using degrees Fahrenheit for public forecast. Weather courtesy of forecast.io.

METAR (pilot weather report)

Closest report is Wright-Patterson Air Force Base, 8.5 nm (15.7 km) NNW. Retrieved 2019/03/24 13:56 UTC (58 minutes ago):

KFFO 241356Z AUTO 00000KT 10SM OVC110 06/M03 A3019 RMK AO2 SLP232 T00641027

TAF (pilot weather forecast)

Forecast is more than 6 hours old.

Closest forecast is Wright-Patterson Air Force Base, 8.5 nm (15.7 km) NNW. Retrieved 2019/03/24 03:12 UTC (12 hours ago):

TAF KFFO 240300Z 2403/2509 VRB06KT 9999 SCT150 QNH3019INS BECMG 2414/2415 19006KT 9999 BKN060 QNH3008INS BECMG 2422/2423 19006KT 9000 -SHRA BR BKN020 QNH3006INS BECMG 2500/2501 VRB06KT 6000 -RA BR OVC010 620802 QNH3005INS BECMG 2502/2503 VRB06KT 6000 -RA BR OVC005 620802 QNH2998INS TX12/2419Z TN02/2408Z